Time;durP1;ratioP1;P1;durP2;ratioP2;P2;SDS_P1;SDS_P2;PMS_P1;PMS_P2;Temp;Humidity;BMP_temperature;BMP_pressure;BME280_temperature;BME280_humidity;BME280_pressure;Samples;Min_cycle;Max_cycle;Signal;HPM_P1;HPM_P2
2022/07/29 00:01:45;;;;;;;;;;;20.80;54.10;;;;;;5050340;28;20043;-69
2022/07/29 00:04:10;;;;;;;;;;;20.70;54.10;;;;;;5063972;28;19956;-69
2022/07/29 00:06:36;;;;;;;;;;;20.70;54.20;;;;;;5050772;28;19912;-69
2022/07/29 00:09:01;;;;;;;;;;;20.70;54.50;;;;;;5043708;28;19988;-69
2022/07/29 00:11:27;;;;;;;;;;;20.60;54.60;;;;;;5044658;28;19960;-69
2022/07/29 00:13:55;;;;;;;;;;;20.60;54.60;;;;;;5055732;28;19919;-69
2022/07/29 00:16:20;;;;;;;;;;;20.60;54.60;;;;;;5052870;28;19912;-69
2022/07/29 00:18:46;;;;;;;;;;;20.60;54.50;;;;;;5051268;28;19905;-70
2022/07/29 00:21:11;;;;;;;;;;;20.60;54.60;;;;;;5064005;28;20000;-70
2022/07/29 00:23:37;;;;;;;;;;;20.60;54.50;;;;;;5048379;28;19917;-69
2022/07/29 00:26:02;;;;;;;;;;;20.60;54.70;;;;;;5048442;28;20011;-69
2022/07/29 00:28:28;;;;;;;;;;;20.60;54.80;;;;;;5063460;28;19951;-69
2022/07/29 00:30:54;;;;;;;;;;;20.60;55.00;;;;;;5050335;28;19916;-69
2022/07/29 00:33:20;;;;;;;;;;;20.60;55.00;;;;;;5051140;28;19904;-67
2022/07/29 00:35:46;;;;;;;;;;;20.50;55.00;;;;;;5046591;28;19939;-68
2022/07/29 00:38:13;;;;;;;;;;;20.50;55.30;;;;;;5039612;28;19909;-68
2022/07/29 00:40:39;;;;;;;;;;;20.40;55.30;;;;;;5061153;28;20326;-69
2022/07/29 00:43:04;;;;;;;;;;;20.40;55.40;;;;;;5046156;28;19913;-69
2022/07/29 00:45:30;;;;;;;;;;;20.40;55.60;;;;;;5055334;28;20361;-68
2022/07/29 00:47:55;;;;;;;;;;;20.40;55.60;;;;;;5054517;28;19917;-68
2022/07/29 00:50:21;;;;;;;;;;;20.40;55.80;;;;;;5049581;28;19932;-68
2022/07/29 00:52:47;;;;;;;;;;;20.40;55.90;;;;;;5048450;28;20375;-68
2022/07/29 00:55:14;;;;;;;;;;;20.40;55.90;;;;;;5052249;28;20338;-68
2022/07/29 00:57:39;;;;;;;;;;;20.40;55.80;;;;;;5055615;28;19955;-68
2022/07/29 01:00:06;;;;;;;;;;;20.30;56.10;;;;;;5054783;28;20009;-68
2022/07/29 01:02:31;;;;;;;;;;;20.30;56.30;;;;;;5060326;28;19916;-68
2022/07/29 01:04:57;;;;;;;;;;;20.20;56.30;;;;;;5064965;28;19908;-68
2022/07/29 01:07:24;;;;;;;;;;;20.20;56.40;;;;;;5051142;28;19905;-68
2022/07/29 01:09:53;;;;;;;;;;;20.20;56.40;;;;;;5049810;28;20275;-68
2022/07/29 01:12:25;;;;;;;;;;;20.20;56.40;;;;;;5050950;28;20395;-68
2022/07/29 01:14:51;;;;;;;;;;;20.20;56.40;;;;;;5048057;28;20347;-69
2022/07/29 01:20:30;;;;;;;;;;;20.20;56.40;;;;;;5042082;28;19915;-69
2022/07/29 01:23:21;;;;;;;;;;;20.20;56.60;;;;;;5047314;28;20493;-68
2022/07/29 01:25:53;;;;;;;;;;;20.20;56.60;;;;;;5049327;28;19916;-68
2022/07/29 01:28:30;;;;;;;;;;;20.20;56.70;;;;;;5063461;28;19912;-69
2022/07/29 01:30:56;;;;;;;;;;;20.20;56.70;;;;;;5060844;28;20151;-70
2022/07/29 01:36:12;;;;;;;;;;;20.10;56.80;;;;;;5052412;28;19954;-69
2022/07/29 01:38:40;;;;;;;;;;;20.10;57.00;;;;;;5053092;28;19979;-69
2022/07/29 01:41:08;;;;;;;;;;;20.00;57.10;;;;;;5050553;28;19917;-70
2022/07/29 01:43:38;;;;;;;;;;;20.00;57.20;;;;;;5044593;28;19936;-69
2022/07/29 01:46:09;;;;;;;;;;;20.00;57.40;;;;;;5050756;28;19913;-70
2022/07/29 01:48:37;;;;;;;;;;;20.00;57.50;;;;;;5051759;28;19915;-70
2022/07/29 01:51:07;;;;;;;;;;;20.00;57.40;;;;;;5051790;28;19909;-69
2022/07/29 01:53:42;;;;;;;;;;;20.00;57.50;;;;;;5041196;28;19909;-68
2022/07/29 01:56:08;;;;;;;;;;;19.90;57.60;;;;;;5040857;28;19909;-69
2022/07/29 01:58:35;;;;;;;;;;;19.90;57.80;;;;;;5047977;28;19920;-70
2022/07/29 02:01:01;;;;;;;;;;;19.80;57.80;;;;;;5053321;28;20314;-69
2022/07/29 02:03:27;;;;;;;;;;;19.90;57.90;;;;;;5056717;28;19916;-69
2022/07/29 02:05:53;;;;;;;;;;;19.90;57.80;;;;;;5051887;28;19916;-69
2022/07/29 02:08:29;;;;;;;;;;;19.90;57.80;;;;;;5054050;28;19919;-69
2022/07/29 02:10:54;;;;;;;;;;;19.90;57.80;;;;;;5049641;28;20691;-69
2022/07/29 02:13:40;;;;;;;;;;;19.90;57.80;;;;;;5049558;28;19917;-68
2022/07/29 02:16:09;;;;;;;;;;;19.80;57.90;;;;;;5044692;28;19940;-69
2022/07/29 02:18:36;;;;;;;;;;;19.80;58.30;;;;;;5040349;28;20390;-69
2022/07/29 02:21:02;;;;;;;;;;;19.90;58.30;;;;;;5050702;28;19908;-70
2022/07/29 02:23:30;;;;;;;;;;;19.90;58.50;;;;;;5051755;28;19913;-69
2022/07/29 02:25:56;;;;;;;;;;;19.80;58.40;;;;;;5053293;28;19912;-70
2022/07/29 02:28:24;;;;;;;;;;;19.80;58.70;;;;;;5051916;28;19916;-69
2022/07/29 02:30:50;;;;;;;;;;;19.80;58.90;;;;;;5050773;28;20682;-69
2022/07/29 02:33:19;;;;;;;;;;;19.80;58.60;;;;;;5048485;28;19939;-69
2022/07/29 02:35:49;;;;;;;;;;;19.80;58.60;;;;;;5062075;28;19916;-69
2022/07/29 02:41:05;;;;;;;;;;;19.80;58.90;;;;;;5051986;28;19959;-69
2022/07/29 02:43:32;;;;;;;;;;;19.80;58.80;;;;;;5050031;28;19916;-68
2022/07/29 02:45:59;;;;;;;;;;;19.80;59.00;;;;;;5050958;28;19987;-69
2022/07/29 02:48:30;;;;;;;;;;;19.70;59.10;;;;;;5049622;28;19966;-69
2022/07/29 02:51:01;;;;;;;;;;;19.70;59.10;;;;;;5051047;28;19908;-69
2022/07/29 02:53:26;;;;;;;;;;;19.70;59.30;;;;;;5045831;28;19908;-68
2022/07/29 02:55:56;;;;;;;;;;;19.60;59.40;;;;;;5048094;28;19913;-68
2022/07/29 02:58:33;;;;;;;;;;;19.60;60.00;;;;;;5045045;28;20383;-69
2022/07/29 03:01:03;;;;;;;;;;;19.60;60.40;;;;;;5049679;28;19974;-69
2022/07/29 03:03:36;;;;;;;;;;;19.60;60.70;;;;;;5052321;28;19919;-68
2022/07/29 03:06:02;;;;;;;;;;;19.50;61.30;;;;;;5050227;28;19948;-68
2022/07/29 03:08:29;;;;;;;;;;;19.50;61.80;;;;;;5051679;28;19909;-69
2022/07/29 03:10:55;;;;;;;;;;;19.40;61.80;;;;;;5052162;28;20280;-67
2022/07/29 03:13:32;;;;;;;;;;;19.40;61.90;;;;;;5052765;28;19913;-67
2022/07/29 03:15:58;;;;;;;;;;;19.40;62.30;;;;;;5048997;28;19919;-66
2022/07/29 03:18:26;;;;;;;;;;;19.40;62.40;;;;;;5066131;28;20882;-67
2022/07/29 03:20:52;;;;;;;;;;;19.30;62.60;;;;;;5051790;28;19952;-66
2022/07/29 03:23:22;;;;;;;;;;;19.30;62.80;;;;;;5059970;28;20331;-66
2022/07/29 03:25:48;;;;;;;;;;;19.30;63.00;;;;;;5051248;28;19908;-68
2022/07/29 03:28:14;;;;;;;;;;;19.20;63.20;;;;;;5062875;28;20508;-66
2022/07/29 03:30:39;;;;;;;;;;;19.10;63.50;;;;;;5060060;28;19913;-67
2022/07/29 03:33:05;;;;;;;;;;;19.10;63.80;;;;;;5044204;28;20403;-68
2022/07/29 03:35:31;;;;;;;;;;;19.10;64.10;;;;;;5050838;28;20359;-67
2022/07/29 03:37:57;;;;;;;;;;;19.00;64.20;;;;;;5051249;28;19913;-67
2022/07/29 03:40:25;;;;;;;;;;;19.00;64.40;;;;;;5051803;28;19909;-67
2022/07/29 03:42:52;;;;;;;;;;;18.90;64.50;;;;;;5049805;28;19920;-66
2022/07/29 03:45:18;;;;;;;;;;;18.90;64.80;;;;;;5047126;28;19928;-67
2022/07/29 03:47:47;;;;;;;;;;;18.80;64.80;;;;;;5049354;28;20322;-67
2022/07/29 03:50:14;;;;;;;;;;;18.80;65.00;;;;;;5050583;28;20006;-67
2022/07/29 03:52:43;;;;;;;;;;;18.70;65.10;;;;;;5039678;28;20862;-67
2022/07/29 03:55:09;;;;;;;;;;;18.70;65.30;;;;;;5044010;28;19935;-67
2022/07/29 03:57:34;;;;;;;;;;;18.60;65.50;;;;;;5048830;28;20558;-67
2022/07/29 04:00:01;;;;;;;;;;;18.60;65.60;;;;;;5051493;28;19913;-67
2022/07/29 04:02:27;;;;;;;;;;;18.50;65.90;;;;;;5050251;28;19912;-68
2022/07/29 04:04:56;;;;;;;;;;;18.50;66.00;;;;;;5050091;28;19909;-68
2022/07/29 04:07:21;;;;;;;;;;;18.50;66.00;;;;;;5051000;28;19908;-68
2022/07/29 04:09:47;;;;;;;;;;;18.50;66.00;;;;;;5048959;28;19911;-68
2022/07/29 04:12:12;;;;;;;;;;;18.50;65.90;;;;;;5041667;28;19921;-67
2022/07/29 04:14:38;;;;;;;;;;;18.50;65.90;;;;;;5050909;28;19923;-68
2022/07/29 04:17:04;;;;;;;;;;;18.40;66.10;;;;;;5064546;28;19913;-67
2022/07/29 04:19:30;;;;;;;;;;;18.40;66.20;;;;;;5042512;28;19916;-68
2022/07/29 04:21:55;;;;;;;;;;;18.40;66.30;;;;;;5047093;28;19919;-66
2022/07/29 04:24:25;;;;;;;;;;;18.40;66.50;;;;;;5049452;28;19917;-66
2022/07/29 04:26:50;;;;;;;;;;;18.40;66.70;;;;;;5050573;28;20704;-66
2022/07/29 04:29:19;;;;;;;;;;;18.40;66.80;;;;;;5049894;28;19971;-67
2022/07/29 04:31:45;;;;;;;;;;;18.30;66.90;;;;;;5051325;28;20294;-67
2022/07/29 04:34:11;;;;;;;;;;;18.30;66.80;;;;;;5050715;28;20007;-67
2022/07/29 04:36:36;;;;;;;;;;;18.40;66.90;;;;;;5050345;28;19908;-67
2022/07/29 04:39:02;;;;;;;;;;;18.30;67.00;;;;;;5045989;28;20032;-67
2022/07/29 04:41:28;;;;;;;;;;;18.30;67.20;;;;;;5040018;28;19995;-68
2022/07/29 04:43:56;;;;;;;;;;;18.30;67.20;;;;;;5041505;28;20388;-68
2022/07/29 04:46:22;;;;;;;;;;;18.20;67.20;;;;;;5064257;28;19934;-68
2022/07/29 04:48:48;;;;;;;;;;;18.20;67.30;;;;;;5046694;28;20047;-67
2022/07/29 04:51:16;;;;;;;;;;;18.20;67.30;;;;;;5064252;28;19919;-68
2022/07/29 04:53:42;;;;;;;;;;;18.20;67.50;;;;;;5048460;28;19912;-68
2022/07/29 04:56:07;;;;;;;;;;;18.20;67.40;;;;;;5051575;28;19915;-68
2022/07/29 04:58:36;;;;;;;;;;;18.20;67.60;;;;;;5052580;28;19975;-68
2022/07/29 05:01:02;;;;;;;;;;;18.20;67.70;;;;;;5053066;28;19909;-68
2022/07/29 05:03:28;;;;;;;;;;;18.10;67.60;;;;;;5054164;28;19935;-67
2022/07/29 05:05:53;;;;;;;;;;;18.10;67.40;;;;;;5053284;28;19919;-67
2022/07/29 05:08:19;;;;;;;;;;;18.10;67.70;;;;;;5035409;28;19916;-68
2022/07/29 05:10:44;;;;;;;;;;;18.10;67.60;;;;;;5049875;28;19999;-68
2022/07/29 05:13:10;;;;;;;;;;;18.10;67.50;;;;;;5044474;28;19921;-68
2022/07/29 05:15:47;;;;;;;;;;;18.10;67.60;;;;;;5043688;28;19936;-68
2022/07/29 05:18:12;;;;;;;;;;;18.10;67.40;;;;;;5053551;28;19986;-68
2022/07/29 05:20:38;;;;;;;;;;;18.10;67.30;;;;;;5051360;28;19940;-68
2022/07/29 05:23:09;;;;;;;;;;;18.10;67.40;;;;;;5049793;28;19924;-67
2022/07/29 05:25:34;;;;;;;;;;;18.10;67.80;;;;;;5050760;28;20360;-68
2022/07/29 05:28:00;;;;;;;;;;;18.10;68.00;;;;;;5047996;28;19971;-68
2022/07/29 05:30:29;;;;;;;;;;;18.10;67.80;;;;;;5045502;28;19917;-68
2022/07/29 05:32:54;;;;;;;;;;;18.10;67.70;;;;;;5050687;28;20280;-68
2022/07/29 05:35:20;;;;;;;;;;;18.10;68.40;;;;;;5047380;28;19927;-68
2022/07/29 05:37:45;;;;;;;;;;;18.10;68.10;;;;;;5045759;28;19913;-68
2022/07/29 05:40:13;;;;;;;;;;;18.20;68.30;;;;;;5048343;28;19909;-68
2022/07/29 05:42:39;;;;;;;;;;;18.20;68.10;;;;;;5046662;28;20289;-68
2022/07/29 05:45:05;;;;;;;;;;;18.30;67.90;;;;;;5045187;28;19939;-68
2022/07/29 05:47:30;;;;;;;;;;;18.40;68.20;;;;;;5047946;28;19962;-68
2022/07/29 05:49:56;;;;;;;;;;;18.40;67.80;;;;;;5046669;28;19925;-68
2022/07/29 05:52:21;;;;;;;;;;;18.50;68.00;;;;;;5050078;28;19909;-69
2022/07/29 05:54:47;;;;;;;;;;;18.50;68.00;;;;;;5046909;28;19913;-69
2022/07/29 05:57:20;;;;;;;;;;;18.50;68.00;;;;;;5049728;28;19920;-68
2022/07/29 05:59:45;;;;;;;;;;;18.50;68.00;;;;;;5047102;28;19905;-68
2022/07/29 06:02:11;;;;;;;;;;;18.60;68.10;;;;;;5053062;28;19973;-68
2022/07/29 06:04:36;;;;;;;;;;;18.60;68.10;;;;;;5052252;28;19966;-68
2022/07/29 06:07:02;;;;;;;;;;;18.60;68.00;;;;;;5051824;28;20053;-68
2022/07/29 06:09:28;;;;;;;;;;;18.60;68.10;;;;;;5048943;28;19912;-68
2022/07/29 06:11:53;;;;;;;;;;;18.60;68.20;;;;;;5048991;28;19931;-68
2022/07/29 06:14:19;;;;;;;;;;;18.70;68.10;;;;;;5050204;28;20280;-68
2022/07/29 06:16:47;;;;;;;;;;;18.70;68.00;;;;;;5048915;28;19905;-68
2022/07/29 06:19:13;;;;;;;;;;;18.70;67.90;;;;;;5044361;28;20000;-66
2022/07/29 06:21:45;;;;;;;;;;;18.80;67.70;;;;;;5047173;28;19999;-66
2022/07/29 06:24:11;;;;;;;;;;;18.80;68.20;;;;;;5047669;28;20274;-66
2022/07/29 06:26:40;;;;;;;;;;;18.80;67.40;;;;;;5048002;28;19917;-67
2022/07/29 06:29:06;;;;;;;;;;;18.80;67.40;;;;;;5044334;28;20026;-67
2022/07/29 06:31:52;;;;;;;;;;;18.90;67.20;;;;;;5044482;28;19962;-67
2022/07/29 06:34:17;;;;;;;;;;;18.90;67.00;;;;;;5045559;28;19905;-67
2022/07/29 06:36:43;;;;;;;;;;;19.00;66.70;;;;;;5048342;28;19932;-68
2022/07/29 06:39:08;;;;;;;;;;;19.10;66.50;;;;;;5044993;28;20380;-68
2022/07/29 06:41:34;;;;;;;;;;;19.10;66.30;;;;;;5047054;28;19921;-69
2022/07/29 06:43:59;;;;;;;;;;;19.20;66.20;;;;;;5052719;28;19925;-68
2022/07/29 06:46:25;;;;;;;;;;;19.20;66.00;;;;;;5063058;28;20442;-67
2022/07/29 06:48:51;;;;;;;;;;;19.30;65.90;;;;;;5052682;28;20363;-68
2022/07/29 06:51:17;;;;;;;;;;;19.40;65.80;;;;;;5047947;28;20383;-68
2022/07/29 06:53:42;;;;;;;;;;;19.40;65.50;;;;;;5051919;28;19995;-68
2022/07/29 06:56:08;;;;;;;;;;;19.50;66.00;;;;;;5064466;28;20414;-69
2022/07/29 06:58:34;;;;;;;;;;;19.60;65.30;;;;;;5048688;28;20019;-69
2022/07/29 07:01:01;;;;;;;;;;;19.70;65.10;;;;;;5047825;28;19913;-69
2022/07/29 07:03:26;;;;;;;;;;;19.70;65.00;;;;;;5054029;28;19970;-69
2022/07/29 07:05:53;;;;;;;;;;;19.70;64.90;;;;;;5063110;28;19908;-69
2022/07/29 07:08:19;;;;;;;;;;;19.70;64.80;;;;;;5048359;28;20306;-68
2022/07/29 07:10:45;;;;;;;;;;;19.70;64.70;;;;;;5044601;28;19908;-67
2022/07/29 07:13:11;;;;;;;;;;;19.70;64.70;;;;;;5048306;28;20299;-67
2022/07/29 07:15:36;;;;;;;;;;;19.70;64.80;;;;;;5046317;28;19962;-68
2022/07/29 07:18:02;;;;;;;;;;;19.80;64.70;;;;;;5052271;28;19905;-68
2022/07/29 07:20:28;;;;;;;;;;;19.80;64.60;;;;;;5041567;28;19999;-67
2022/07/29 07:22:54;;;;;;;;;;;19.90;64.80;;;;;;5037401;28;19979;-68
2022/07/29 07:25:19;;;;;;;;;;;19.90;64.70;;;;;;5039236;28;19913;-68
2022/07/29 07:27:45;;;;;;;;;;;19.80;64.70;;;;;;5041629;28;19913;-68
2022/07/29 07:30:11;;;;;;;;;;;19.80;65.00;;;;;;5040762;28;19919;-68
2022/07/29 07:32:37;;;;;;;;;;;19.70;65.30;;;;;;5039591;28;19908;-67
2022/07/29 07:35:06;;;;;;;;;;;19.70;65.40;;;;;;5037908;28;19913;-68
2022/07/29 07:37:31;;;;;;;;;;;19.70;65.50;;;;;;5042783;28;20410;-68
2022/07/29 07:39:57;;;;;;;;;;;19.80;65.50;;;;;;5045610;28;20015;-67
2022/07/29 07:42:23;;;;;;;;;;;19.80;65.40;;;;;;5048765;28;19923;-69
2022/07/29 07:44:49;;;;;;;;;;;19.80;65.40;;;;;;5046129;28;20023;-69
2022/07/29 07:47:15;;;;;;;;;;;19.80;65.30;;;;;;5058294;28;19916;-69
2022/07/29 07:49:41;;;;;;;;;;;19.80;65.20;;;;;;5048010;28;19981;-69
2022/07/29 07:52:06;;;;;;;;;;;19.70;65.10;;;;;;5046594;28;19943;-69
2022/07/29 07:54:32;;;;;;;;;;;19.70;65.00;;;;;;5047992;28;20386;-69
2022/07/29 07:56:57;;;;;;;;;;;19.70;65.20;;;;;;5043125;28;19909;-69
2022/07/29 07:59:23;;;;;;;;;;;19.70;65.60;;;;;;5048808;28;20000;-69
2022/07/29 08:01:49;;;;;;;;;;;19.70;65.50;;;;;;5052261;28;19923;-69
2022/07/29 08:04:15;;;;;;;;;;;19.70;65.20;;;;;;5057656;28;20272;-69
2022/07/29 08:06:40;;;;;;;;;;;19.80;65.20;;;;;;5042261;28;19921;-69
2022/07/29 08:09:06;;;;;;;;;;;19.90;65.10;;;;;;5042256;28;19952;-69
2022/07/29 08:11:32;;;;;;;;;;;19.90;65.00;;;;;;5048720;28;19990;-69
2022/07/29 08:13:57;;;;;;;;;;;19.90;64.80;;;;;;5044924;28;19909;-69
2022/07/29 08:16:24;;;;;;;;;;;19.90;64.60;;;;;;5032943;28;19917;-69
2022/07/29 08:18:50;;;;;;;;;;;20.00;64.50;;;;;;5038069;28;19908;-68
2022/07/29 08:21:16;;;;;;;;;;;20.10;64.50;;;;;;5042256;28;19921;-68
2022/07/29 08:23:48;;;;;;;;;;;20.10;64.20;;;;;;5049036;28;19925;-68
2022/07/29 08:26:14;;;;;;;;;;;20.10;64.20;;;;;;5045932;28;20314;-68
2022/07/29 08:28:44;;;;;;;;;;;20.20;64.20;;;;;;5045375;28;19915;-68
2022/07/29 08:31:10;;;;;;;;;;;20.30;64.30;;;;;;5048686;28;19909;-68
2022/07/29 08:33:35;;;;;;;;;;;20.30;64.40;;;;;;5053695;28;20015;-68
2022/07/29 08:36:01;;;;;;;;;;;20.50;64.40;;;;;;5057826;28;20027;-68
2022/07/29 08:38:27;;;;;;;;;;;20.50;64.20;;;;;;5054841;28;20228;-68
2022/07/29 08:40:53;;;;;;;;;;;20.60;64.00;;;;;;5052168;28;20346;-68
2022/07/29 08:43:19;;;;;;;;;;;20.60;63.80;;;;;;5052253;28;19966;-69
2022/07/29 08:45:45;;;;;;;;;;;20.70;63.70;;;;;;5051079;28;19909;-69
2022/07/29 08:48:12;;;;;;;;;;;20.70;63.70;;;;;;5054563;28;20651;-68
2022/07/29 08:50:37;;;;;;;;;;;20.70;63.70;;;;;;5053491;28;19959;-68
2022/07/29 08:53:03;;;;;;;;;;;20.80;63.60;;;;;;5053986;28;20276;-68
2022/07/29 08:55:29;;;;;;;;;;;20.80;63.40;;;;;;5053174;28;19988;-68
2022/07/29 08:57:55;;;;;;;;;;;20.90;63.30;;;;;;5056510;28;19983;-68
2022/07/29 09:00:22;;;;;;;;;;;20.90;63.40;;;;;;5058456;28;20335;-68
2022/07/29 09:02:51;;;;;;;;;;;20.90;63.30;;;;;;5052596;28;21183;-67
2022/07/29 09:05:17;;;;;;;;;;;20.80;63.10;;;;;;5051187;28;19912;-68
2022/07/29 09:07:43;;;;;;;;;;;20.80;63.30;;;;;;5071354;28;19935;-68
2022/07/29 09:10:09;;;;;;;;;;;20.80;63.20;;;;;;5052747;28;20008;-68
2022/07/29 09:12:35;;;;;;;;;;;20.80;63.20;;;;;;5053788;28;20011;-69
2022/07/29 09:15:00;;;;;;;;;;;20.80;63.10;;;;;;5049797;28;19917;-69
2022/07/29 09:17:42;;;;;;;;;;;20.80;63.20;;;;;;5052616;28;19921;-69
2022/07/29 09:20:08;;;;;;;;;;;20.80;63.10;;;;;;5046608;28;19952;-69
2022/07/29 09:22:34;;;;;;;;;;;20.90;63.20;;;;;;5048635;28;19920;-69
2022/07/29 09:24:59;;;;;;;;;;;20.90;63.30;;;;;;5067458;28;19916;-69
2022/07/29 09:27:26;;;;;;;;;;;20.90;63.20;;;;;;5050108;28;20412;-69
2022/07/29 09:29:56;;;;;;;;;;;21.00;63.40;;;;;;5049139;28;20024;-69
2022/07/29 09:32:21;;;;;;;;;;;21.00;63.20;;;;;;5050830;28;19917;-69
2022/07/29 09:34:47;;;;;;;;;;;21.00;63.10;;;;;;5043019;28;19909;-69
2022/07/29 09:37:25;;;;;;;;;;;21.10;63.00;;;;;;5052453;28;19915;-69
2022/07/29 09:39:52;;;;;;;;;;;21.10;62.80;;;;;;5051676;28;19909;-69
2022/07/29 09:42:27;;;;;;;;;;;21.20;62.90;;;;;;5044763;28;21217;-69
2022/07/29 09:44:52;;;;;;;;;;;21.20;62.90;;;;;;5050788;28;19909;-69
2022/07/29 09:47:18;;;;;;;;;;;21.20;62.90;;;;;;5050697;28;19999;-69
2022/07/29 09:50:00;;;;;;;;;;;21.20;63.00;;;;;;5051831;28;20006;-69
2022/07/29 09:52:26;;;;;;;;;;;21.30;63.00;;;;;;5048187;28;19909;-69
2022/07/29 09:54:53;;;;;;;;;;;21.30;63.00;;;;;;5043378;28;19959;-69
2022/07/29 09:57:26;;;;;;;;;;;21.30;62.90;;;;;;5051702;28;19913;-69
2022/07/29 09:59:59;;;;;;;;;;;21.30;62.90;;;;;;5052150;28;19909;-69
2022/07/29 10:02:28;;;;;;;;;;;21.40;62.80;;;;;;5052215;28;19917;-69
2022/07/29 10:04:55;;;;;;;;;;;21.50;62.80;;;;;;5050698;28;19920;-68
2022/07/29 10:07:20;;;;;;;;;;;21.60;62.60;;;;;;5052780;28;19913;-68
2022/07/29 10:09:52;;;;;;;;;;;21.70;62.40;;;;;;5045259;28;20011;-68
2022/07/29 10:12:17;;;;;;;;;;;21.80;62.30;;;;;;5041938;28;19912;-67
2022/07/29 10:14:44;;;;;;;;;;;21.90;62.00;;;;;;5047123;28;19913;-68
2022/07/29 10:17:10;;;;;;;;;;;22.10;61.80;;;;;;5049520;28;19963;-68
2022/07/29 10:19:37;;;;;;;;;;;22.30;61.50;;;;;;5067001;28;19908;-68
2022/07/29 10:22:07;;;;;;;;;;;22.50;61.20;;;;;;5042691;28;19909;-68
2022/07/29 10:24:33;;;;;;;;;;;22.80;60.90;;;;;;5043946;28;20466;-67
2022/07/29 10:27:01;;;;;;;;;;;23.20;60.40;;;;;;5060084;28;20012;-66
2022/07/29 10:29:26;;;;;;;;;;;23.30;59.90;;;;;;5040072;28;19992;-66
2022/07/29 10:31:52;;;;;;;;;;;23.50;59.70;;;;;;5050383;28;19999;-67
2022/07/29 10:34:31;;;;;;;;;;;23.80;59.30;;;;;;5045303;28;19915;-66
2022/07/29 10:37:03;;;;;;;;;;;24.00;58.70;;;;;;5038285;28;20298;-68
2022/07/29 10:39:34;;;;;;;;;;;24.30;58.50;;;;;;5041813;28;19924;-68
2022/07/29 10:42:19;;;;;;;;;;;24.50;57.90;;;;;;5041110;28;20375;-68
2022/07/29 10:44:45;;;;;;;;;;;24.80;57.40;;;;;;5040098;28;20520;-68
2022/07/29 10:47:20;;;;;;;;;;;25.10;57.50;;;;;;5044620;28;19917;-68
2022/07/29 10:49:59;;;;;;;;;;;25.30;56.70;;;;;;5027668;28;19959;-68
2022/07/29 10:52:44;;;;;;;;;;;25.50;55.70;;;;;;5039623;28;20429;-68
2022/07/29 10:55:29;;;;;;;;;;;25.70;55.40;;;;;;5039907;28;19913;-68
2022/07/29 10:58:12;;;;;;;;;;;25.90;54.70;;;;;;5044364;28;20015;-68
2022/07/29 11:00:37;;;;;;;;;;;26.10;53.90;;;;;;5043850;28;20466;-69
2022/07/29 11:03:03;;;;;;;;;;;26.20;53.50;;;;;;5042086;28;19924;-68
2022/07/29 11:05:31;;;;;;;;;;;26.40;53.40;;;;;;5042493;28;19927;-67
2022/07/29 11:08:12;;;;;;;;;;;26.60;53.20;;;;;;5033625;28;19995;-67
2022/07/29 11:10:37;;;;;;;;;;;26.80;52.30;;;;;;5037201;28;19975;-67
2022/07/29 11:13:03;;;;;;;;;;;26.90;52.20;;;;;;5041337;28;19920;-67
2022/07/29 11:15:30;;;;;;;;;;;27.00;51.60;;;;;;5039551;28;19916;-67
2022/07/29 11:17:56;;;;;;;;;;;27.20;51.60;;;;;;5045487;28;19921;-70
2022/07/29 11:20:42;;;;;;;;;;;27.40;51.40;;;;;;5036809;28;19952;-69
2022/07/29 11:23:27;;;;;;;;;;;27.50;49.90;;;;;;5042722;28;19981;-68
2022/07/29 11:29:04;;;;;;;;;;;27.40;50.80;;;;;;5040999;28;19912;-70
2022/07/29 11:31:41;;;;;;;;;;;27.40;51.00;;;;;;5050851;28;19955;-69
2022/07/29 11:34:17;;;;;;;;;;;27.40;50.60;;;;;;5042237;28;20092;-67
2022/07/29 11:37:02;;;;;;;;;;;27.40;50.60;;;;;;5043738;28;19966;-67
2022/07/29 11:39:28;;;;;;;;;;;27.40;50.10;;;;;;5046902;28;19909;-67
2022/07/29 11:42:13;;;;;;;;;;;27.20;49.10;;;;;;5048508;28;21273;-69
2022/07/29 11:44:58;;;;;;;;;;;27.30;49.70;;;;;;5045568;28;19913;-69
2022/07/29 11:47:24;;;;;;;;;;;27.40;49.50;;;;;;5059045;28;20008;-69
2022/07/29 11:49:51;;;;;;;;;;;27.70;48.90;;;;;;5045993;28;19913;-69
2022/07/29 11:52:17;;;;;;;;;;;27.70;48.90;;;;;;5046329;28;19924;-69
2022/07/29 11:54:43;;;;;;;;;;;27.80;48.50;;;;;;5055202;28;19908;-69
2022/07/29 11:57:09;;;;;;;;;;;27.90;48.80;;;;;;5046727;28;19917;-69
2022/07/29 11:59:41;;;;;;;;;;;27.90;48.80;;;;;;5043965;28;19919;-69
2022/07/29 12:02:07;;;;;;;;;;;28.00;48.60;;;;;;5058235;28;20071;-68
2022/07/29 12:04:33;;;;;;;;;;;28.00;48.60;;;;;;5042626;28;19920;-68
2022/07/29 12:06:59;;;;;;;;;;;28.20;48.20;;;;;;5047461;28;19920;-68
2022/07/29 12:09:24;;;;;;;;;;;28.30;48.30;;;;;;5047802;28;20406;-68
2022/07/29 12:11:56;;;;;;;;;;;28.40;48.30;;;;;;5045765;28;19921;-68
2022/07/29 12:14:29;;;;;;;;;;;28.50;47.90;;;;;;5046293;28;19987;-68
2022/07/29 12:16:55;;;;;;;;;;;28.60;47.80;;;;;;5047765;28;20685;-68
2022/07/29 12:19:20;;;;;;;;;;;28.70;47.50;;;;;;5045556;28;19918;-68
2022/07/29 12:21:46;;;;;;;;;;;28.90;46.90;;;;;;5047070;28;20389;-67
2022/07/29 12:24:12;;;;;;;;;;;29.10;46.50;;;;;;5043205;28;19920;-68
2022/07/29 12:26:48;;;;;;;;;;;29.20;45.40;;;;;;5045272;28;20450;-69
2022/07/29 12:29:17;;;;;;;;;;;29.20;45.30;;;;;;5047568;28;20409;-68
2022/07/29 12:31:43;;;;;;;;;;;29.30;44.90;;;;;;5047905;28;20302;-68
2022/07/29 12:34:13;;;;;;;;;;;29.30;44.90;;;;;;5046041;28;20010;-69
2022/07/29 12:36:40;;;;;;;;;;;29.40;45.80;;;;;;5045115;28;19909;-69
2022/07/29 12:39:06;;;;;;;;;;;29.60;45.30;;;;;;5044018;28;19913;-69
2022/07/29 12:41:32;;;;;;;;;;;29.90;44.80;;;;;;5038184;28;20414;-69
2022/07/29 12:43:57;;;;;;;;;;;30.10;43.70;;;;;;5042568;28;19924;-69
2022/07/29 12:46:23;;;;;;;;;;;30.20;43.50;;;;;;5042365;28;20007;-69
2022/07/29 12:48:56;;;;;;;;;;;30.20;43.20;;;;;;5049340;28;19912;-69
2022/07/29 12:51:31;;;;;;;;;;;30.30;43.60;;;;;;5049633;28;19908;-67
2022/07/29 12:54:04;;;;;;;;;;;30.50;43.00;;;;;;5045671;28;19956;-68
2022/07/29 12:56:30;;;;;;;;;;;30.50;41.50;;;;;;5050709;28;19916;-68
2022/07/29 12:58:55;;;;;;;;;;;30.60;41.90;;;;;;5040666;28;19921;-69
2022/07/29 13:01:21;;;;;;;;;;;30.80;42.20;;;;;;5063209;28;19925;-69
2022/07/29 13:03:49;;;;;;;;;;;30.90;41.70;;;;;;5062105;28;19925;-69
2022/07/29 13:06:47;;;;;;;;;;;30.90;41.20;;;;;;5045264;28;19912;-67
2022/07/29 13:09:19;;;;;;;;;;;31.00;41.60;;;;;;5005344;28;19917;-66
2022/07/29 13:11:46;;;;;;;;;;;31.30;41.40;;;;;;5062514;28;20288;-66
2022/07/29 13:14:13;;;;;;;;;;;31.40;41.00;;;;;;5045927;28;19912;-66
2022/07/29 13:16:57;;;;;;;;;;;31.70;40.80;;;;;;5052879;28;20274;-67
2022/07/29 13:19:31;;;;;;;;;;;31.90;40.30;;;;;;5047926;28;20423;-69
2022/07/29 13:21:57;;;;;;;;;;;32.00;39.90;;;;;;5053640;28;20047;-68
2022/07/29 13:24:23;;;;;;;;;;;32.10;40.20;;;;;;5052112;28;19991;-68
2022/07/29 13:27:08;;;;;;;;;;;32.20;39.10;;;;;;5049770;28;19916;-68
2022/07/29 13:29:34;;;;;;;;;;;32.40;39.30;;;;;;5050957;28;19909;-67
2022/07/29 13:32:00;;;;;;;;;;;32.50;38.80;;;;;;5054081;28;20050;-68
2022/07/29 13:34:25;;;;;;;;;;;32.50;38.10;;;;;;5051314;28;19908;-68
2022/07/29 13:36:51;;;;;;;;;;;32.40;38.60;;;;;;5053034;28;19913;-67
2022/07/29 13:39:17;;;;;;;;;;;32.50;38.80;;;;;;5052728;28;19909;-69
2022/07/29 13:41:42;;;;;;;;;;;32.60;38.90;;;;;;5052435;28;19962;-68
2022/07/29 13:44:08;;;;;;;;;;;32.70;38.30;;;;;;5052241;28;19916;-67
2022/07/29 13:46:33;;;;;;;;;;;32.80;37.30;;;;;;5049939;28;19913;-67
2022/07/29 13:48:59;;;;;;;;;;;32.60;37.40;;;;;;5067507;28;20786;-67
2022/07/29 13:51:24;;;;;;;;;;;32.50;37.70;;;;;;5050970;28;19920;-67
2022/07/29 13:53:50;;;;;;;;;;;32.40;37.80;;;;;;5065746;28;20022;-67
2022/07/29 13:56:15;;;;;;;;;;;32.60;38.00;;;;;;5052041;28;20382;-68
2022/07/29 13:58:41;;;;;;;;;;;32.70;38.00;;;;;;5050000;28;19959;-68
2022/07/29 14:01:06;;;;;;;;;;;32.90;37.90;;;;;;5052909;28;19916;-67
2022/07/29 14:03:32;;;;;;;;;;;33.00;38.00;;;;;;5051929;28;19991;-67
2022/07/29 14:05:59;;;;;;;;;;;33.10;36.80;;;;;;5049318;28;19943;-68
2022/07/29 14:08:25;;;;;;;;;;;32.90;36.90;;;;;;5052641;28;19960;-67
2022/07/29 14:10:50;;;;;;;;;;;32.80;36.70;;;;;;5067545;28;19963;-67
2022/07/29 14:13:17;;;;;;;;;;;32.80;36.20;;;;;;5051912;28;19925;-68
2022/07/29 14:15:43;;;;;;;;;;;32.90;37.00;;;;;;5051296;28;19939;-68
2022/07/29 14:18:08;;;;;;;;;;;33.00;36.60;;;;;;5044846;28;19916;-69
2022/07/29 14:20:34;;;;;;;;;;;32.90;36.50;;;;;;5048841;28;19917;-69
2022/07/29 14:22:59;;;;;;;;;;;32.80;36.90;;;;;;5043864;28;19921;-69
2022/07/29 14:25:25;;;;;;;;;;;32.40;36.90;;;;;;5043357;28;19916;-69
2022/07/29 14:27:52;;;;;;;;;;;32.00;36.50;;;;;;5066694;28;19912;-69
2022/07/29 14:30:18;;;;;;;;;;;31.60;37.30;;;;;;5067193;28;19963;-68
2022/07/29 14:32:44;;;;;;;;;;;31.20;37.80;;;;;;5050033;28;19912;-68